Iron Ridge, Wisconsin
Current Conditions -  °F | °C
As of 3:35 AM on Thursday 27 Nov 2014 (Local Time) from KUNU Reporting Station
Overcast Overcast  
Wind Chill: 14°   Ceiling: 5000
Heat Index: 21°   Visibility: 10mi
Dew Point: 19°   Wind: 6mph
Humidity: 89%   Direction: 310°NW
Pressure: 30.24"   Gusts: NA
Location:  43.4°N, 88.53°W
Report Text: KUNU 270935Z AUTO 31005KT 10SM OVC050 M06/M07 A3024 RMK AO2 T10601075
Loading
Personal Weather Stations






























Interactive Weather Map New forecast layout! Learn more

10-Day Weather Forecast

Advertisements
Track Severe Weather on mobile